Terminal Aerodrome Forecast
Issued by NWS Charleston, WV

Current Version | Previous Version | Graphics & Text | Print | Product List | Glossary On
Versions: 1 2 3 4 5 6 7 8 9 10 11 12 13 14 15 16 17 18 19 20 21 22
769
FTUS41 KRLX 240520
TAFHTS
TAF
KHTS 240520Z 2406/2506 01004KT P6SM SKC
     FM240700 00000KT 6SM BR SKC
      TEMPO 2408/2409 3SM BR SCT001
     FM240900 00000KT 1/4SM FG VV001
     FM241300 00000KT 2SM BR FEW001
     FM241400 04004KT P6SM SKC
     FM250100 VRB02KT P6SM SKC=

USA.gov is the U.S. government's official web portal to all federal, state and local government web resources and services.